createdAt,value
2023-09-17T00:00:31.332Z,9.78
2023-09-17T00:03:00.687Z,9.77
2023-09-17T00:05:28.397Z,9.73
2023-09-17T00:07:56.154Z,9.73
2023-09-17T00:10:24.161Z,9.73
2023-09-17T00:12:56.597Z,9.73
2023-09-17T00:15:24.465Z,9.72
2023-09-17T00:17:53.063Z,9.71
2023-09-17T00:20:20.810Z,9.69
2023-09-17T00:22:48.524Z,9.69
2023-09-17T00:25:16.273Z,9.69
2023-09-17T00:27:43.997Z,9.70
2023-09-17T00:30:13.107Z,9.71
2023-09-17T00:32:41.355Z,9.72
2023-09-17T00:35:09.655Z,9.71
2023-09-17T00:37:37.334Z,9.71
2023-09-17T00:40:12.620Z,9.71
2023-09-17T00:42:42.050Z,9.73
2023-09-17T00:45:11.983Z,9.73
2023-09-17T00:47:39.832Z,9.70
2023-09-17T00:50:08.209Z,9.67
2023-09-17T00:52:35.802Z,9.66
2023-09-17T00:55:04.038Z,9.68
2023-09-17T00:57:32.417Z,9.70
2023-09-17T01:00:01.108Z,9.69
2023-09-17T01:02:29.566Z,9.66
2023-09-17T01:04:57.357Z,9.61
2023-09-17T01:07:25.128Z,9.55
2023-09-17T01:09:52.721Z,9.45
2023-09-17T01:12:21.458Z,9.37
2023-09-17T01:14:49.117Z,9.30
2023-09-17T01:17:16.785Z,9.24
2023-09-17T01:19:44.834Z,9.18
2023-09-17T01:22:19.114Z,9.13
2023-09-17T01:25:13.377Z,9.06
2023-09-17T01:27:41.019Z,8.99
2023-09-17T01:30:17.455Z,8.96
2023-09-17T01:32:45.373Z,8.97
2023-09-17T01:35:17.314Z,8.96
2023-09-17T01:37:48.611Z,8.93
2023-09-17T01:40:17.165Z,8.89
2023-09-17T01:42:51.567Z,8.85
2023-09-17T01:45:19.639Z,8.82
2023-09-17T01:47:49.343Z,8.77
2023-09-17T01:50:18.350Z,8.72
2023-09-17T01:52:46.052Z,8.69
2023-09-17T01:55:16.658Z,8.66
2023-09-17T01:57:44.291Z,8.61
2023-09-17T02:00:19.751Z,8.58
2023-09-17T02:02:50.270Z,8.58
2023-09-17T02:05:18.651Z,8.58
2023-09-17T02:07:46.407Z,8.56
2023-09-17T02:10:14.819Z,8.55
2023-09-17T02:12:42.542Z,8.53
2023-09-17T02:15:13.065Z,8.53
2023-09-17T02:17:41.459Z,8.52
2023-09-17T02:20:12.711Z,8.54
2023-09-17T02:22:40.836Z,8.55
2023-09-17T02:25:11.492Z,8.58
2023-09-17T02:27:39.769Z,8.60
2023-09-17T02:30:09.183Z,8.63
2023-09-17T02:32:39.081Z,8.62
2023-09-17T02:35:08.395Z,8.60
2023-09-17T02:37:36.193Z,8.61
2023-09-17T02:40:05.973Z,8.59
2023-09-17T02:42:33.713Z,8.58
2023-09-17T02:45:03.023Z,8.56
2023-09-17T02:47:30.759Z,8.55
2023-09-17T02:49:58.658Z,8.52
2023-09-17T02:52:27.272Z,8.50
2023-09-17T02:54:58.277Z,8.49
2023-09-17T02:57:25.935Z,8.48
2023-09-17T02:59:53.606Z,8.52
2023-09-17T03:02:21.867Z,8.52
2023-09-17T03:04:52.739Z,8.50
2023-09-17T03:07:20.618Z,8.47
2023-09-17T03:09:48.345Z,8.47
2023-09-17T03:12:15.995Z,8.44
2023-09-17T03:14:43.968Z,8.42
2023-09-17T03:17:11.988Z,8.43
2023-09-17T03:19:40.324Z,8.44
2023-09-17T03:22:07.968Z,8.45
2023-09-17T03:24:36.252Z,8.46
2023-09-17T03:27:04.423Z,8.48
2023-09-17T03:29:32.124Z,8.48
2023-09-17T03:32:00.087Z,8.47
2023-09-17T03:34:27.954Z,8.45
2023-09-17T03:36:55.585Z,8.45
2023-09-17T03:39:23.667Z,8.43
2023-09-17T03:41:51.310Z,8.39
2023-09-17T03:44:18.970Z,8.39
2023-09-17T03:46:46.901Z,8.40
2023-09-17T03:49:15.009Z,8.42
2023-09-17T03:51:42.668Z,8.45
2023-09-17T03:54:10.329Z,8.48
2023-09-17T03:56:37.998Z,8.49
2023-09-17T03:59:06.264Z,8.50
2023-09-17T04:01:34.016Z,8.54
2023-09-17T04:04:01.948Z,8.59
2023-09-17T04:06:30.890Z,8.67
2023-09-17T04:08:58.560Z,8.73
2023-09-17T04:11:29.693Z,8.83
2023-09-17T04:13:57.278Z,8.94
2023-09-17T04:16:25.032Z,9.05
2023-09-17T04:18:52.981Z,9.17
2023-09-17T04:21:21.467Z,9.32
2023-09-17T04:23:49.401Z,9.50
2023-09-17T04:26:17.605Z,9.70
2023-09-17T04:28:47.566Z,9.91
2023-09-17T04:31:15.284Z,10.13
2023-09-17T04:33:42.952Z,10.34
2023-09-17T04:36:10.604Z,10.48
2023-09-17T04:38:38.270Z,10.60
2023-09-17T04:41:06.648Z,10.68
2023-09-17T04:43:35.396Z,10.75
2023-09-17T04:46:03.217Z,10.81
2023-09-17T04:48:33.632Z,10.86
2023-09-17T04:51:01.186Z,10.88
2023-09-17T04:53:28.746Z,10.90
2023-09-17T04:55:56.457Z,10.92
2023-09-17T04:58:28.998Z,10.95
2023-09-17T05:00:56.599Z,10.97
2023-09-17T05:03:24.829Z,10.99
2023-09-17T05:05:52.992Z,11.01
2023-09-17T05:08:20.813Z,11.06
2023-09-17T05:10:50.017Z,11.12
2023-09-17T05:13:19.269Z,11.18
2023-09-17T05:15:47.471Z,11.23
2023-09-17T05:18:15.189Z,11.29
2023-09-17T05:20:45.911Z,11.36
2023-09-17T05:23:14.210Z,11.43
2023-09-17T05:25:42.196Z,11.52
2023-09-17T05:28:11.377Z,11.60
2023-09-17T05:30:39.262Z,11.68
2023-09-17T05:33:07.758Z,11.76
2023-09-17T05:35:38.346Z,11.85
2023-09-17T05:38:07.026Z,11.93
2023-09-17T05:40:35.650Z,12.02
2023-09-17T05:43:03.896Z,12.11
2023-09-17T05:45:32.128Z,12.20
2023-09-17T05:48:00.434Z,12.28
2023-09-17T05:50:28.326Z,12.38
2023-09-17T05:52:56.089Z,12.47
2023-09-17T05:55:24.151Z,12.56
2023-09-17T05:57:51.912Z,12.65
2023-09-17T06:00:21.194Z,12.76
2023-09-17T06:02:48.924Z,12.87
2023-09-17T06:05:17.958Z,12.99
2023-09-17T06:07:45.828Z,13.11
2023-09-17T06:10:14.314Z,13.25
2023-09-17T06:12:42.569Z,13.36
2023-09-17T06:15:10.776Z,13.50
2023-09-17T06:17:39.478Z,13.59
2023-09-17T06:20:08.339Z,13.71
2023-09-17T06:22:36.011Z,13.83
2023-09-17T06:25:05.233Z,13.92
2023-09-17T06:27:33.044Z,14.01
2023-09-17T06:30:00.884Z,14.13
2023-09-17T06:32:29.655Z,14.23
2023-09-17T06:34:57.534Z,14.32
2023-09-17T06:37:25.397Z,14.42
2023-09-17T06:39:53.291Z,14.53
2023-09-17T06:42:21.065Z,14.63
2023-09-17T06:44:49.230Z,14.74
2023-09-17T06:47:17.404Z,14.87
2023-09-17T06:49:45.200Z,15.03
2023-09-17T06:52:12.930Z,15.15
2023-09-17T06:54:40.512Z,15.24
2023-09-17T06:57:08.865Z,15.35
2023-09-17T06:59:36.634Z,15.47
2023-09-17T07:02:04.302Z,15.63
2023-09-17T07:04:32.011Z,15.78
2023-09-17T07:07:02.164Z,15.95
2023-09-17T07:09:30.346Z,16.09
2023-09-17T07:11:58.117Z,16.25
2023-09-17T07:14:25.820Z,16.36
2023-09-17T07:16:53.501Z,16.49
2023-09-17T07:19:21.510Z,16.66
2023-09-17T07:21:49.267Z,16.85
2023-09-17T07:24:17.030Z,17.03
2023-09-17T07:26:45.408Z,17.23
2023-09-17T07:29:13.081Z,17.43
2023-09-17T07:31:42.489Z,17.59
2023-09-17T07:34:10.133Z,17.72
2023-09-17T07:36:37.804Z,17.85
2023-09-17T07:39:05.655Z,17.96
2023-09-17T07:41:33.327Z,18.12
2023-09-17T07:44:01.132Z,18.28
2023-09-17T07:46:28.872Z,18.41
2023-09-17T07:48:56.611Z,18.58
2023-09-17T07:51:24.275Z,18.80
2023-09-17T07:53:52.568Z,18.93
2023-09-17T07:56:21.592Z,18.96
2023-09-17T07:58:51.497Z,19.05
2023-09-17T08:01:19.441Z,19.18
2023-09-17T08:03:47.292Z,19.37
2023-09-17T08:06:15.462Z,19.57
2023-09-17T08:08:47.302Z,19.74
2023-09-17T08:11:17.856Z,19.97
2023-09-17T08:13:45.593Z,20.23
2023-09-17T08:16:13.357Z,20.44
2023-09-17T08:18:41.137Z,20.60
2023-09-17T08:21:08.799Z,20.71
2023-09-17T08:23:36.680Z,20.77
2023-09-17T08:26:06.098Z,20.97
2023-09-17T08:28:35.484Z,21.21
2023-09-17T08:31:04.091Z,21.47
2023-09-17T08:33:31.812Z,21.81
2023-09-17T08:35:59.376Z,22.11
2023-09-17T08:38:27.981Z,22.41
2023-09-17T08:40:55.642Z,22.77
2023-09-17T08:43:24.200Z,23.12
2023-09-17T08:45:52.117Z,23.33
2023-09-17T08:48:19.934Z,23.47
2023-09-17T08:50:50.512Z,23.63
2023-09-17T08:53:21.241Z,23.72
2023-09-17T08:55:49.500Z,23.81
2023-09-17T08:58:17.414Z,23.92
2023-09-17T09:00:49.972Z,23.98
2023-09-17T09:03:20.193Z,24.11
2023-09-17T09:05:49.233Z,24.17
2023-09-17T09:08:17.405Z,24.18
2023-09-17T09:10:45.100Z,24.25
2023-09-17T09:13:12.832Z,24.40
2023-09-17T09:15:42.216Z,24.59
2023-09-17T09:18:10.492Z,24.76
2023-09-17T09:20:38.897Z,24.89
2023-09-17T09:23:07.716Z,25.00
2023-09-17T09:25:35.783Z,25.01
2023-09-17T09:28:04.343Z,25.08
2023-09-17T09:30:32.084Z,25.15
2023-09-17T09:33:00.609Z,25.13
2023-09-17T09:35:28.949Z,24.90
2023-09-17T09:37:56.652Z,24.73
2023-09-17T09:40:25.911Z,24.86
2023-09-17T09:42:53.784Z,25.17
2023-09-17T09:45:21.739Z,25.31
2023-09-17T09:47:50.529Z,25.12
2023-09-17T09:50:25.770Z,24.88
2023-09-17T09:52:54.837Z,24.89
2023-09-17T09:55:25.282Z,25.01
2023-09-17T09:57:53.460Z,25.11
2023-09-17T10:00:30.789Z,25.23
2023-09-17T10:03:00.508Z,25.33
2023-09-17T10:05:35.731Z,25.44
2023-09-17T10:08:08.388Z,25.69
2023-09-17T10:10:40.073Z,25.98
2023-09-17T10:13:08.716Z,26.28
2023-09-17T10:15:37.785Z,26.55
2023-09-17T10:18:06.497Z,26.67
2023-09-17T10:20:34.161Z,26.69
2023-09-17T10:23:02.387Z,26.42
2023-09-17T10:25:30.552Z,26.11
2023-09-17T10:27:58.168Z,26.08
2023-09-17T10:30:25.828Z,26.10
2023-09-17T10:32:53.495Z,26.15
2023-09-17T10:36:23.712Z,26.24
2023-09-17T10:38:53.704Z,26.24
2023-09-17T10:41:21.389Z,26.17
2023-09-17T10:43:49.077Z,26.32
2023-09-17T10:46:16.736Z,26.27
2023-09-17T10:48:44.679Z,25.89
2023-09-17T10:51:13.471Z,25.53
2023-09-17T10:53:41.698Z,25.44
2023-09-17T10:56:10.535Z,25.54
2023-09-17T10:58:52.194Z,25.60
2023-09-17T11:01:26.200Z,25.71
2023-09-17T11:03:59.882Z,25.66
2023-09-17T11:06:28.784Z,25.33
2023-09-17T11:08:57.639Z,24.98
2023-09-17T11:11:26.208Z,24.53
2023-09-17T11:13:54.905Z,24.12
2023-09-17T11:16:26.649Z,23.74
2023-09-17T11:19:22.087Z,23.35
2023-09-17T11:21:51.063Z,23.02
2023-09-17T11:24:20.605Z,22.91
2023-09-17T11:26:49.331Z,23.12
2023-09-17T11:29:17.230Z,23.57
2023-09-17T11:31:54.919Z,24.21
2023-09-17T11:34:22.769Z,24.90
2023-09-17T11:36:51.959Z,25.38
2023-09-17T11:39:22.906Z,25.79
2023-09-17T11:41:56.404Z,26.19
2023-09-17T11:44:50.478Z,26.60
2023-09-17T11:47:18.879Z,26.91
2023-09-17T11:49:48.285Z,27.17
2023-09-17T11:52:16.739Z,27.37
2023-09-17T11:54:52.551Z,27.48
2023-09-17T11:57:27.117Z,27.66
2023-09-17T11:59:59.701Z,27.90
2023-09-17T12:02:30.747Z,27.90
2023-09-17T12:05:00.805Z,27.94
2023-09-17T12:07:35.927Z,28.03
2023-09-17T12:10:07.478Z,28.10
2023-09-17T12:12:38.476Z,28.10
2023-09-17T12:15:07.927Z,28.08
2023-09-17T12:17:43.942Z,28.10
2023-09-17T12:21:08.635Z,28.03
2023-09-17T12:24:06.623Z,27.95
2023-09-17T12:27:31.094Z,27.71
2023-09-17T12:29:59.273Z,27.45
2023-09-17T12:32:29.269Z,27.21
2023-09-17T12:34:58.112Z,27.14
2023-09-17T12:37:29.228Z,27.08
2023-09-17T12:39:58.031Z,27.05
2023-09-17T12:42:26.183Z,27.15
2023-09-17T12:44:56.805Z,27.43
2023-09-17T12:47:26.629Z,27.72
2023-09-17T12:49:56.404Z,27.89
2023-09-17T12:52:24.407Z,27.95
2023-09-17T12:54:55.216Z,28.01
2023-09-17T12:57:24.150Z,27.98
2023-09-17T12:59:52.085Z,27.92
2023-09-17T13:02:20.961Z,27.96
2023-09-17T13:04:48.798Z,27.85
2023-09-17T13:07:24.577Z,27.72
2023-09-17T13:09:57.915Z,27.75
2023-09-17T13:12:25.758Z,27.78
2023-09-17T13:14:53.823Z,27.72
2023-09-17T13:17:22.370Z,27.59
2023-09-17T13:19:50.519Z,27.35
2023-09-17T13:22:19.381Z,27.19
2023-09-17T13:24:47.560Z,27.12
2023-09-17T13:27:19.060Z,27.16
2023-09-17T13:29:51.460Z,27.11
2023-09-17T13:32:20.133Z,27.14
2023-09-17T13:34:48.846Z,27.30
2023-09-17T13:37:16.804Z,27.42
2023-09-17T13:39:51.105Z,27.33
2023-09-17T13:42:19.087Z,26.99
2023-09-17T13:44:46.754Z,26.61
2023-09-17T13:47:14.545Z,26.28
2023-09-17T13:49:42.689Z,26.20
2023-09-17T13:52:11.006Z,26.22
2023-09-17T13:54:40.442Z,26.39
2023-09-17T13:57:08.505Z,26.60
2023-09-17T13:59:36.224Z,26.63
2023-09-17T14:02:05.400Z,26.75
2023-09-17T14:04:34.858Z,26.83
2023-09-17T14:07:03.076Z,26.93
2023-09-17T14:09:30.744Z,27.03
2023-09-17T14:11:58.390Z,27.12
2023-09-17T14:14:26.050Z,27.07
2023-09-17T14:16:53.777Z,27.02
2023-09-17T14:19:21.705Z,26.99
2023-09-17T14:21:49.381Z,27.07
2023-09-17T14:24:17.209Z,27.27
2023-09-17T14:26:45.234Z,27.47
2023-09-17T14:29:13.331Z,27.49
2023-09-17T14:31:43.781Z,27.63
2023-09-17T14:34:12.349Z,27.83
2023-09-17T14:36:40.121Z,27.92
2023-09-17T14:39:09.968Z,27.98
2023-09-17T14:41:39.537Z,28.02
2023-09-17T14:44:07.707Z,28.07
2023-09-17T14:46:39.688Z,28.08
2023-09-17T14:49:08.084Z,28.05
2023-09-17T14:51:36.055Z,27.84
2023-09-17T14:54:04.443Z,27.42
2023-09-17T14:56:32.166Z,26.88
2023-09-17T14:58:59.849Z,26.28
2023-09-17T15:01:53.087Z,25.73
2023-09-17T15:04:16.256Z,25.15
2023-09-17T15:06:44.211Z,24.67
2023-09-17T15:09:11.877Z,24.20
2023-09-17T15:11:39.532Z,23.77
2023-09-17T15:14:07.224Z,23.34
2023-09-17T15:16:34.939Z,22.94
2023-09-17T15:19:03.029Z,22.61
2023-09-17T15:21:30.785Z,22.27
2023-09-17T15:23:58.769Z,21.92
2023-09-17T15:26:27.648Z,21.66
2023-09-17T15:28:55.700Z,21.57
2023-09-17T15:31:23.480Z,21.48
2023-09-17T15:33:55.184Z,21.35
2023-09-17T15:36:22.905Z,21.19
2023-09-17T15:38:50.840Z,20.94
2023-09-17T15:41:18.987Z,20.67
2023-09-17T15:43:46.716Z,20.37
2023-09-17T15:46:14.386Z,20.02
2023-09-17T15:48:42.028Z,19.67
2023-09-17T15:51:11.222Z,19.36
2023-09-17T15:53:38.885Z,19.05
2023-09-17T15:56:06.574Z,18.70
2023-09-17T15:58:34.413Z,18.37
2023-09-17T16:01:02.067Z,18.08
2023-09-17T16:03:30.905Z,17.83
2023-09-17T16:05:58.721Z,17.60
2023-09-17T16:08:26.465Z,17.37
2023-09-17T16:10:54.692Z,17.16
2023-09-17T16:13:22.937Z,16.94
2023-09-17T16:15:52.118Z,16.76
2023-09-17T16:18:19.789Z,16.58
2023-09-17T16:20:47.347Z,16.40
2023-09-17T16:23:15.524Z,16.23
2023-09-17T16:25:43.308Z,16.08
2023-09-17T16:28:11.252Z,15.93
2023-09-17T16:30:39.531Z,15.79
2023-09-17T16:33:07.281Z,15.66
2023-09-17T16:35:35.670Z,15.51
2023-09-17T16:38:04.017Z,15.35
2023-09-17T16:40:33.043Z,15.21
2023-09-17T16:43:09.459Z,15.09
2023-09-17T16:45:38.808Z,15.00
2023-09-17T16:48:06.599Z,14.93
2023-09-17T16:50:34.434Z,14.84
2023-09-17T16:53:02.148Z,14.72
2023-09-17T16:55:30.077Z,14.62
2023-09-17T16:57:57.927Z,14.53
2023-09-17T17:00:25.597Z,14.44
2023-09-17T17:02:53.437Z,14.35
2023-09-17T17:05:21.357Z,14.26
2023-09-17T17:07:49.130Z,14.19
2023-09-17T17:10:17.073Z,14.13
2023-09-17T17:12:44.721Z,14.06
2023-09-17T17:15:12.703Z,13.99
2023-09-17T17:17:40.380Z,13.93
2023-09-17T17:20:09.010Z,13.87
2023-09-17T17:22:44.185Z,13.84
2023-09-17T17:25:11.934Z,13.78
2023-09-17T17:27:39.599Z,13.71
2023-09-17T17:30:08.152Z,13.65
2023-09-17T17:32:35.777Z,13.60
2023-09-17T17:35:04.514Z,13.54
2023-09-17T17:37:32.195Z,13.49
2023-09-17T17:39:59.948Z,13.42
2023-09-17T17:42:27.719Z,13.37
2023-09-17T17:44:55.996Z,13.30
2023-09-17T17:47:24.571Z,13.23
2023-09-17T17:49:54.710Z,13.16
2023-09-17T17:52:22.555Z,13.12
2023-09-17T17:54:50.220Z,13.06
2023-09-17T17:57:20.364Z,13.02
2023-09-17T17:59:48.117Z,12.99
2023-09-17T18:02:15.986Z,12.95
2023-09-17T18:04:43.893Z,12.91
2023-09-17T18:07:15.486Z,12.87
2023-09-17T18:09:43.558Z,12.82
2023-09-17T18:12:11.225Z,12.78
2023-09-17T18:14:38.980Z,12.74
2023-09-17T18:17:06.702Z,12.69
2023-09-17T18:19:34.401Z,12.61
2023-09-17T18:22:02.167Z,12.55
2023-09-17T18:24:30.031Z,12.50
2023-09-17T18:26:57.898Z,12.45
2023-09-17T18:29:28.910Z,12.38
2023-09-17T18:31:57.531Z,12.32
2023-09-17T18:34:25.308Z,12.29
2023-09-17T18:36:55.392Z,12.26
2023-09-17T18:39:23.178Z,12.25
2023-09-17T18:41:50.829Z,12.22
2023-09-17T18:44:19.066Z,12.22
2023-09-17T18:46:46.857Z,12.21
2023-09-17T18:49:19.951Z,12.18
2023-09-17T18:51:47.968Z,12.18
2023-09-17T18:54:15.893Z,12.19
2023-09-17T18:56:44.072Z,12.18
2023-09-17T18:59:11.877Z,12.14
2023-09-17T19:01:41.080Z,12.09
2023-09-17T19:04:09.387Z,12.06
2023-09-17T19:06:37.269Z,12.05
2023-09-17T19:09:07.027Z,12.05
2023-09-17T19:11:35.374Z,12.07
2023-09-17T19:14:03.423Z,12.08
2023-09-17T19:16:31.262Z,12.08
2023-09-17T19:18:59.057Z,12.06
2023-09-17T19:21:26.829Z,12.05
2023-09-17T19:23:55.175Z,12.04
2023-09-17T19:26:23.246Z,12.04
2023-09-17T19:28:51.087Z,12.04
2023-09-17T19:31:19.048Z,12.03
2023-09-17T19:33:47.480Z,12.00
2023-09-17T19:36:15.240Z,11.96
2023-09-17T19:38:43.003Z,11.92
2023-09-17T19:41:11.358Z,11.88
2023-09-17T19:43:39.251Z,11.83
2023-09-17T19:46:06.924Z,11.75
2023-09-17T19:48:34.785Z,11.69
2023-09-17T19:51:02.450Z,11.62
2023-09-17T19:53:30.517Z,11.56
2023-09-17T19:55:58.116Z,11.50
2023-09-17T19:58:25.840Z,11.44
2023-09-17T20:00:53.502Z,11.41
2023-09-17T20:03:24.742Z,11.39
2023-09-17T20:05:53.329Z,11.37
2023-09-17T20:08:21.443Z,11.35
2023-09-17T20:10:49.197Z,11.32
2023-09-17T20:13:17.851Z,11.28
2023-09-17T20:15:51.493Z,11.24
2023-09-17T20:18:19.213Z,11.20
2023-09-17T20:20:50.460Z,11.15
2023-09-17T20:23:18.574Z,11.12
2023-09-17T20:25:48.166Z,11.06
2023-09-17T20:28:19.553Z,11.01
2023-09-17T20:30:52.300Z,10.96
2023-09-17T20:33:22.037Z,10.90
2023-09-17T20:35:50.555Z,10.85
2023-09-17T20:38:18.806Z,10.80
2023-09-17T20:40:46.494Z,10.80
2023-09-17T20:43:14.463Z,10.81
2023-09-17T20:45:42.394Z,10.81
2023-09-17T20:48:10.364Z,10.79
2023-09-17T20:50:38.006Z,10.75
2023-09-17T20:53:05.645Z,10.75
2023-09-17T20:55:33.284Z,10.74
2023-09-17T20:58:00.938Z,10.75
2023-09-17T21:00:28.601Z,10.75
2023-09-17T21:02:58.516Z,10.77
2023-09-17T21:05:26.804Z,10.80
2023-09-17T21:07:54.487Z,10.82
2023-09-17T21:10:22.725Z,10.83
2023-09-17T21:12:51.541Z,10.82
2023-09-17T21:15:19.193Z,10.79
2023-09-17T21:17:46.847Z,10.75
2023-09-17T21:20:20.552Z,10.73
2023-09-17T21:22:49.585Z,10.70
2023-09-17T21:25:17.816Z,10.68
2023-09-17T21:27:45.571Z,10.64
2023-09-17T21:30:13.530Z,10.62
2023-09-17T21:32:42.699Z,10.57
2023-09-17T21:35:11.742Z,10.51
2023-09-17T21:37:39.721Z,10.46
2023-09-17T21:40:08.059Z,10.42
2023-09-17T21:42:36.930Z,10.38
2023-09-17T21:45:05.547Z,10.34
2023-09-17T21:47:33.262Z,10.28
2023-09-17T21:50:01.799Z,10.23
2023-09-17T21:52:30.879Z,10.18
2023-09-17T21:54:58.660Z,10.13
2023-09-17T21:57:26.536Z,10.10
2023-09-17T21:59:54.264Z,10.07
2023-09-17T22:02:22.017Z,10.05
2023-09-17T22:41:48.603Z,10.30
2023-09-17T22:44:24.447Z,10.30
2023-09-17T22:46:53.018Z,10.32
2023-09-17T22:49:20.902Z,10.35
2023-09-17T22:54:25.898Z,10.41
2023-09-17T22:56:54.022Z,10.41
2023-09-17T22:59:21.961Z,10.43
2023-09-17T23:01:49.593Z,10.44
2023-09-17T23:04:17.314Z,10.44
2023-09-17T23:06:44.977Z,10.42
2023-09-17T23:09:12.758Z,10.39
2023-09-17T23:11:40.500Z,10.36
2023-09-17T23:14:09.789Z,10.35
2023-09-17T23:16:37.695Z,10.34
2023-09-17T23:19:08.504Z,10.33
2023-09-17T23:21:36.777Z,10.31
2023-09-17T23:24:05.164Z,10.30
2023-09-17T23:26:33.207Z,10.31
2023-09-17T23:29:02.693Z,10.33
2023-09-17T23:31:31.469Z,10.35
2023-09-17T23:33:59.172Z,10.38
2023-09-17T23:36:28.788Z,10.39
2023-09-17T23:38:57.067Z,10.41
2023-09-17T23:41:25.239Z,10.40
2023-09-17T23:43:53.033Z,10.38
2023-09-17T23:46:23.403Z,10.34
2023-09-17T23:48:51.463Z,10.31
2023-09-17T23:51:19.468Z,10.28
2023-09-17T23:53:47.025Z,10.24
2023-09-17T23:56:15.476Z,10.20
2023-09-17T23:58:43.270Z,10.17
